createdAt,value
2023-01-13T00:00:03.285Z,79.75
2023-01-13T00:02:38.854Z,80.05
2023-01-13T00:05:06.318Z,80.65
2023-01-13T00:07:33.140Z,80.73
2023-01-13T00:09:59.999Z,80.62
2023-01-13T00:12:26.995Z,80.92
2023-01-13T00:14:53.984Z,80.92
2023-01-13T00:17:20.822Z,80.58
2023-01-13T00:19:50.115Z,80.62
2023-01-13T00:22:17.142Z,80.13
2023-01-13T00:24:44.009Z,80.04
2023-01-13T00:27:13.106Z,80.11
2023-01-13T00:29:39.973Z,79.99
2023-01-13T00:32:06.900Z,79.68
2023-01-13T00:34:33.849Z,80.23
2023-01-13T00:37:00.768Z,79.57
2023-01-13T00:39:27.759Z,80.19
2023-01-13T00:42:13.162Z,79.68
2023-01-13T00:44:39.974Z,79.95
2023-01-13T00:47:06.873Z,79.59
2023-01-13T00:49:33.750Z,79.34
2023-01-13T00:52:00.589Z,79.18
2023-01-13T00:54:27.364Z,78.97
2023-01-13T00:56:54.230Z,78.46
2023-01-13T00:59:21.110Z,78.13
2023-01-13T01:01:48.150Z,78.03
2023-01-13T01:04:15.162Z,78.72
2023-01-13T01:06:42.130Z,78.93
2023-01-13T01:09:20.988Z,78.72
2023-01-13T01:11:47.854Z,78.56
2023-01-13T01:14:14.902Z,79.03
2023-01-13T01:16:42.002Z,78.80
2023-01-13T01:19:10.101Z,78.43
2023-01-13T01:21:37.126Z,78.79
2023-01-13T01:24:04.581Z,78.77
2023-01-13T01:26:32.254Z,78.54
2023-01-13T01:28:59.747Z,78.32
2023-01-13T01:31:31.360Z,77.98
2023-01-13T01:33:58.643Z,78.13
2023-01-13T01:36:27.052Z,77.57
2023-01-13T01:38:56.707Z,77.81
2023-01-13T01:41:25.860Z,77.86
2023-01-13T01:43:59.960Z,77.92
2023-01-13T01:46:38.447Z,77.65
2023-01-13T01:49:14.398Z,78.09
2023-01-13T01:51:50.812Z,78.33
2023-01-13T01:54:39.274Z,78.27
2023-01-13T01:57:08.646Z,78.13
2023-01-13T01:59:36.638Z,78.46
2023-01-13T02:02:08.259Z,78.18
2023-01-13T02:04:40.179Z,78.18
2023-01-13T02:07:09.521Z,78.16
2023-01-13T02:09:36.818Z,78.14
2023-01-13T02:12:22.228Z,77.95
2023-01-13T02:14:49.064Z,78.08
2023-01-13T02:17:19.567Z,77.62
2023-01-13T02:20:29.222Z,78.32
2023-01-13T02:23:05.075Z,78.22
2023-01-13T02:25:50.782Z,77.87
2023-01-13T02:28:30.112Z,78.17
2023-01-13T02:31:24.066Z,78.57
2023-01-13T02:34:00.091Z,77.72
2023-01-13T02:36:32.977Z,78.07
2023-01-13T02:39:49.326Z,77.61
2023-01-13T02:42:45.501Z,78.18
2023-01-13T02:45:38.074Z,78.05
2023-01-13T02:48:06.730Z,77.86
2023-01-13T02:50:39.985Z,78.13
2023-01-13T02:53:21.173Z,77.88
2023-01-13T02:55:51.219Z,77.60
2023-01-13T02:58:21.779Z,77.87
2023-01-13T03:00:49.603Z,77.33
2023-01-13T03:03:16.553Z,77.49
2023-01-13T03:05:45.418Z,77.46
2023-01-13T03:08:31.044Z,77.86
2023-01-13T03:11:06.444Z,77.76
2023-01-13T03:14:02.613Z,77.28
2023-01-13T03:16:54.488Z,77.50
2023-01-13T03:19:46.319Z,77.22
2023-01-13T03:22:25.596Z,77.13
2023-01-13T03:25:02.843Z,77.71
2023-01-13T03:27:38.514Z,76.66
2023-01-13T03:30:14.623Z,77.56
2023-01-13T03:32:53.529Z,77.17
2023-01-13T03:35:32.978Z,77.03
2023-01-13T03:38:06.932Z,76.97
2023-01-13T03:40:38.510Z,77.18
2023-01-13T03:43:30.005Z,77.09
2023-01-13T03:46:02.155Z,77.27
2023-01-13T03:48:31.591Z,77.02
2023-01-13T03:51:06.419Z,77.15
2023-01-13T03:53:40.113Z,76.90
2023-01-13T03:56:22.821Z,76.83
2023-01-13T03:58:51.055Z,76.70
2023-01-13T04:01:34.757Z,76.64
2023-01-13T04:04:29.235Z,76.92
2023-01-13T04:07:12.890Z,76.85
2023-01-13T04:09:55.922Z,77.19
2023-01-13T04:12:49.467Z,77.25
2023-01-13T04:15:18.118Z,76.79
2023-01-13T04:17:45.120Z,76.80
2023-01-13T04:20:12.438Z,76.59
2023-01-13T04:22:39.303Z,76.92
2023-01-13T04:25:06.781Z,77.16
2023-01-13T04:27:33.693Z,76.73
2023-01-13T04:30:00.717Z,76.82
2023-01-13T04:32:27.671Z,76.74
2023-01-13T04:34:54.662Z,76.84
2023-01-13T04:37:21.639Z,76.41
2023-01-13T04:39:48.644Z,76.71
2023-01-13T04:42:15.458Z,76.99
2023-01-13T04:44:45.031Z,76.96
2023-01-13T04:47:12.046Z,77.23
2023-01-13T04:49:38.979Z,76.95
2023-01-13T04:52:07.355Z,76.78
2023-01-13T04:54:34.478Z,76.69
2023-01-13T04:57:01.712Z,77.19
2023-01-13T04:59:30.668Z,76.99
2023-01-13T05:01:57.666Z,77.06
2023-01-13T05:04:24.657Z,76.89
2023-01-13T05:06:51.627Z,77.03
2023-01-13T05:09:18.702Z,76.61
2023-01-13T05:12:04.169Z,76.76
2023-01-13T05:14:49.691Z,76.29
2023-01-13T05:17:23.351Z,76.33
2023-01-13T05:19:50.561Z,76.25
2023-01-13T05:22:36.181Z,76.38
2023-01-13T05:25:25.611Z,76.69
2023-01-13T05:28:02.781Z,76.44
2023-01-13T05:30:34.561Z,76.45
2023-01-13T05:33:01.948Z,76.24
2023-01-13T05:35:31.339Z,76.44
2023-01-13T05:37:58.464Z,76.19
2023-01-13T05:40:43.893Z,76.00
2023-01-13T05:43:22.614Z,76.16
2023-01-13T05:46:01.665Z,75.86
2023-01-13T05:48:42.839Z,75.85
2023-01-13T05:51:15.168Z,75.60
2023-01-13T05:53:42.267Z,76.09
2023-01-13T05:56:10.333Z,75.54
2023-01-13T05:58:37.442Z,75.79
2023-01-13T06:01:06.773Z,76.08
2023-01-13T06:03:35.010Z,76.32
2023-01-13T06:06:04.088Z,76.32
2023-01-13T06:08:31.776Z,76.30
2023-01-13T06:10:58.728Z,76.39
2023-01-13T06:13:25.963Z,76.36
2023-01-13T06:15:57.825Z,76.93
2023-01-13T06:18:25.039Z,77.11
2023-01-13T06:20:52.015Z,76.76
2023-01-13T06:23:19.215Z,77.21
2023-01-13T06:26:13.183Z,77.10
2023-01-13T06:28:43.140Z,77.08
2023-01-13T06:31:10.985Z,77.18
2023-01-13T06:33:41.574Z,76.98
2023-01-13T06:36:18.478Z,77.14
2023-01-13T06:38:48.175Z,77.41
2023-01-13T06:41:15.423Z,77.31
2023-01-13T06:43:42.460Z,77.53
2023-01-13T06:46:09.420Z,78.24
2023-01-13T06:48:38.709Z,78.66
2023-01-13T06:51:05.844Z,78.46
2023-01-13T06:53:33.107Z,78.64
2023-01-13T06:56:00.132Z,78.74
2023-01-13T06:58:27.162Z,78.29
2023-01-13T07:00:54.305Z,78.67
2023-01-13T07:03:21.637Z,78.40
2023-01-13T07:05:54.225Z,78.71
2023-01-13T07:08:21.579Z,78.16
2023-01-13T07:10:48.476Z,78.29
2023-01-13T07:13:33.943Z,78.05
2023-01-13T07:16:03.471Z,78.43
2023-01-13T07:18:32.324Z,77.58
2023-01-13T07:21:01.340Z,77.61
2023-01-13T07:23:28.891Z,77.48
2023-01-13T07:25:56.906Z,77.47
2023-01-13T07:28:24.941Z,77.29
2023-01-13T07:30:52.190Z,76.84
2023-01-13T07:33:19.373Z,77.01
2023-01-13T07:35:46.711Z,76.75
2023-01-13T07:38:14.065Z,76.41
2023-01-13T07:40:41.388Z,76.55
2023-01-13T07:43:30.657Z,75.74
2023-01-13T07:46:01.333Z,75.46
2023-01-13T07:48:29.123Z,75.80
2023-01-13T07:50:56.309Z,74.91
2023-01-13T07:53:31.362Z,74.90
2023-01-13T07:55:59.221Z,74.93
2023-01-13T07:58:29.738Z,73.71
2023-01-13T08:00:56.847Z,73.15
2023-01-13T08:03:24.503Z,72.76
2023-01-13T08:05:51.652Z,72.42
2023-01-13T08:08:18.708Z,72.16
2023-01-13T08:10:49.227Z,71.97
2023-01-13T08:13:21.155Z,72.00
2023-01-13T08:16:09.102Z,71.36
2023-01-13T08:18:37.787Z,70.95
2023-01-13T08:21:06.951Z,70.80
2023-01-13T08:23:34.233Z,70.10
2023-01-13T08:26:08.281Z,70.77
2023-01-13T08:28:35.628Z,69.24
2023-01-13T08:31:05.849Z,69.51
2023-01-13T08:33:33.262Z,69.81
2023-01-13T08:36:07.066Z,68.23
2023-01-13T08:38:34.967Z,68.21
2023-01-13T08:41:02.647Z,67.56
2023-01-13T08:43:32.803Z,66.59
2023-01-13T08:46:05.071Z,65.39
2023-01-13T08:48:32.438Z,64.92
2023-01-13T08:51:22.218Z,64.23
2023-01-13T08:53:49.418Z,63.02
2023-01-13T08:56:17.189Z,61.96
2023-01-13T08:58:44.400Z,58.90
2023-01-13T09:01:14.540Z,57.09
2023-01-13T09:03:42.118Z,54.83
2023-01-13T09:06:09.132Z,54.50
2023-01-13T09:08:36.042Z,54.74
2023-01-13T09:11:23.049Z,52.40
2023-01-13T09:13:51.257Z,48.92
2023-01-13T09:16:18.682Z,48.99
2023-01-13T09:18:47.037Z,47.56
2023-01-13T09:21:14.444Z,48.88
2023-01-13T09:23:41.287Z,49.10
2023-01-13T09:26:09.513Z,48.03
2023-01-13T09:28:36.283Z,44.60
2023-01-13T09:31:03.353Z,41.83
2023-01-13T09:33:48.833Z,43.74
2023-01-13T09:36:15.771Z,45.42
2023-01-13T09:38:42.634Z,46.24
2023-01-13T09:41:39.092Z,48.57
2023-01-13T09:44:10.515Z,50.54
2023-01-13T09:46:47.736Z,51.49
2023-01-13T09:49:20.941Z,51.86
2023-01-13T09:52:35.355Z,53.03
2023-01-13T09:55:21.684Z,53.83
2023-01-13T09:57:48.769Z,54.19
2023-01-13T10:00:23.466Z,54.75
2023-01-13T10:02:56.224Z,55.51
2023-01-13T10:05:34.166Z,55.73
2023-01-13T10:08:11.664Z,56.22
2023-01-13T10:10:43.524Z,56.48
2023-01-13T10:13:20.308Z,56.72
2023-01-13T10:16:11.728Z,57.54
2023-01-13T10:19:04.249Z,57.76
2023-01-13T10:21:50.025Z,58.27
2023-01-13T10:24:26.178Z,58.54
2023-01-13T10:27:03.313Z,58.01
2023-01-13T10:29:31.281Z,59.01
2023-01-13T10:31:59.730Z,59.60
2023-01-13T10:34:28.441Z,59.79
2023-01-13T10:37:06.207Z,60.19
2023-01-13T10:39:44.469Z,60.35
2023-01-13T10:42:19.545Z,60.14
2023-01-13T10:44:52.050Z,60.92
2023-01-13T10:47:31.453Z,60.71
2023-01-13T10:50:13.454Z,60.34
2023-01-13T10:52:55.325Z,60.34
2023-01-13T10:55:37.340Z,59.81
2023-01-13T10:58:16.307Z,59.99
2023-01-13T11:00:43.456Z,60.74
2023-01-13T11:03:20.212Z,60.32
2023-01-13T11:05:56.983Z,59.67
2023-01-13T11:08:46.480Z,60.10
2023-01-13T11:11:38.261Z,59.41
2023-01-13T11:14:34.103Z,59.76
2023-01-13T11:17:25.954Z,59.74
2023-01-13T11:20:12.705Z,59.58
2023-01-13T11:22:44.776Z,60.29
2023-01-13T11:25:17.434Z,59.80
2023-01-13T11:27:58.552Z,60.79
2023-01-13T11:30:41.317Z,60.41
2023-01-13T11:33:14.251Z,60.20
2023-01-13T11:36:23.533Z,59.98
2023-01-13T11:38:55.803Z,59.71
2023-01-13T11:41:44.573Z,59.30
2023-01-13T11:44:32.538Z,60.13
2023-01-13T11:46:59.488Z,60.33
2023-01-13T11:49:29.129Z,61.48
2023-01-13T11:52:11.612Z,61.77
2023-01-13T11:54:41.308Z,61.63
2023-01-13T11:57:26.972Z,62.73
2023-01-13T12:00:16.557Z,62.12
2023-01-13T12:03:01.003Z,62.43
2023-01-13T12:05:40.624Z,62.25
2023-01-13T12:08:38.801Z,61.93
2023-01-13T12:11:16.660Z,62.65
2023-01-13T12:13:46.803Z,62.25
2023-01-13T12:16:23.934Z,62.41
2023-01-13T12:19:07.719Z,62.72
2023-01-13T12:22:09.982Z,61.59
2023-01-13T12:24:46.204Z,61.43
2023-01-13T12:27:23.893Z,61.55
2023-01-13T12:29:55.445Z,61.20
2023-01-13T12:32:36.852Z,61.01
2023-01-13T12:35:08.406Z,61.10
2023-01-13T12:38:01.762Z,60.63
2023-01-13T12:40:48.151Z,60.24
2023-01-13T12:43:38.771Z,60.34
2023-01-13T12:46:24.633Z,60.62
2023-01-13T12:48:54.999Z,59.87
2023-01-13T12:51:33.437Z,59.83
2023-01-13T12:54:01.988Z,60.17
2023-01-13T12:56:29.452Z,60.14
2023-01-13T12:59:21.624Z,60.32
2023-01-13T13:02:13.188Z,60.35
2023-01-13T13:04:49.763Z,60.41
2023-01-13T13:07:40.951Z,61.17
2023-01-13T13:10:15.957Z,60.81
2023-01-13T13:13:01.486Z,60.31
2023-01-13T13:15:30.711Z,60.13
2023-01-13T13:18:03.746Z,60.16
2023-01-13T13:20:55.525Z,59.86
2023-01-13T13:23:44.392Z,60.26
2023-01-13T13:26:26.537Z,60.46
2023-01-13T13:29:02.535Z,59.88
2023-01-13T13:31:29.410Z,60.15
2023-01-13T13:34:53.744Z,60.43
2023-01-13T13:38:14.576Z,60.59
2023-01-13T13:41:05.562Z,60.62
2023-01-13T13:44:03.439Z,60.42
2023-01-13T13:46:47.736Z,60.29
2023-01-13T13:49:18.679Z,60.62
2023-01-13T13:51:49.460Z,60.04
2023-01-13T13:54:19.925Z,60.13
2023-01-13T13:56:48.100Z,60.78
2023-01-13T13:59:19.306Z,61.13
2023-01-13T14:01:46.759Z,61.24
2023-01-13T14:04:20.906Z,60.81
2023-01-13T14:06:59.080Z,60.73
2023-01-13T14:09:28.820Z,61.15
2023-01-13T14:12:04.220Z,60.92
2023-01-13T14:14:31.136Z,61.95
2023-01-13T14:16:58.968Z,62.37
2023-01-13T14:19:32.874Z,61.96
2023-01-13T14:22:02.242Z,62.54
2023-01-13T14:24:30.725Z,62.81
2023-01-13T14:27:14.875Z,62.69
2023-01-13T14:29:42.072Z,62.96
2023-01-13T14:32:10.794Z,62.92
2023-01-13T14:34:38.994Z,63.25
2023-01-13T14:37:23.274Z,63.32
2023-01-13T14:39:50.580Z,62.91
2023-01-13T14:42:18.024Z,63.75
2023-01-13T14:44:47.044Z,63.35
2023-01-13T14:47:21.584Z,64.76
2023-01-13T14:49:57.049Z,65.19
2023-01-13T14:52:25.258Z,64.72
2023-01-13T14:54:55.604Z,65.65
2023-01-13T14:57:29.071Z,65.98
2023-01-13T15:00:14.343Z,66.03
2023-01-13T15:02:56.414Z,66.52
2023-01-13T15:05:26.105Z,66.50
2023-01-13T15:08:01.462Z,67.60
2023-01-13T15:10:29.565Z,68.08
2023-01-13T15:12:58.561Z,68.94
2023-01-13T15:15:33.711Z,68.62
2023-01-13T15:18:02.234Z,68.57
2023-01-13T15:20:29.568Z,69.38
2023-01-13T15:22:58.931Z,68.29
2023-01-13T15:25:26.054Z,69.10
2023-01-13T15:27:55.515Z,68.91
2023-01-13T15:30:25.973Z,68.74
2023-01-13T15:32:59.922Z,69.13
2023-01-13T15:35:29.774Z,69.44
2023-01-13T15:37:57.479Z,69.60
2023-01-13T15:40:29.330Z,69.19
2023-01-13T15:43:14.901Z,69.64
2023-01-13T15:46:00.928Z,69.75
2023-01-13T15:48:32.301Z,69.74
2023-01-13T15:51:00.174Z,69.64
2023-01-13T15:53:28.394Z,69.61
2023-01-13T15:55:57.247Z,69.71
2023-01-13T15:58:29.807Z,69.95
2023-01-13T16:00:57.009Z,69.90
2023-01-13T16:03:24.360Z,69.90
2023-01-13T16:05:51.761Z,69.84
2023-01-13T16:08:20.214Z,69.50
2023-01-13T16:10:48.011Z,69.58
2023-01-13T16:13:15.970Z,69.90
2023-01-13T16:15:47.649Z,69.96
2023-01-13T16:18:21.151Z,69.74
2023-01-13T16:20:53.187Z,70.11
2023-01-13T16:23:20.776Z,69.87
2023-01-13T16:25:48.069Z,69.34
2023-01-13T16:28:24.146Z,68.95
2023-01-13T16:30:51.677Z,69.01
2023-01-13T16:33:18.888Z,68.83
2023-01-13T16:36:11.791Z,69.39
2023-01-13T16:38:33.070Z,68.68
2023-01-13T16:41:03.278Z,68.38
2023-01-13T16:43:30.326Z,67.77
2023-01-13T16:45:57.583Z,68.40
2023-01-13T16:48:24.542Z,67.95
2023-01-13T16:50:51.663Z,67.75
2023-01-13T16:53:18.917Z,68.27
2023-01-13T16:55:46.199Z,67.06
2023-01-13T16:58:21.280Z,67.21
2023-01-13T17:00:48.429Z,67.50
2023-01-13T17:03:18.306Z,67.06
2023-01-13T17:05:49.880Z,67.92
2023-01-13T17:08:18.318Z,67.62
2023-01-13T17:10:48.571Z,67.80
2023-01-13T17:13:16.989Z,67.64
2023-01-13T17:15:45.823Z,67.55
2023-01-13T17:18:13.798Z,67.17
2023-01-13T17:20:43.149Z,67.45
2023-01-13T17:23:12.688Z,67.15
2023-01-13T17:25:39.845Z,67.26
2023-01-13T17:28:07.157Z,67.11
2023-01-13T17:30:37.035Z,66.86
2023-01-13T17:33:06.612Z,66.74
2023-01-13T17:35:33.887Z,67.12
2023-01-13T17:38:02.155Z,66.71
2023-01-13T17:40:31.231Z,66.32
2023-01-13T17:42:58.411Z,66.34
2023-01-13T17:45:25.537Z,67.81
2023-01-13T17:47:57.986Z,68.69
2023-01-13T17:50:27.791Z,69.39
2023-01-13T17:52:56.111Z,69.84
2023-01-13T17:55:23.068Z,70.01
2023-01-13T17:57:50.284Z,70.37
2023-01-13T18:00:17.752Z,70.49
2023-01-13T18:02:44.927Z,70.71
2023-01-13T18:05:12.909Z,70.91
2023-01-13T18:07:40.028Z,70.96
2023-01-13T18:10:07.406Z,70.19
2023-01-13T18:12:38.065Z,70.41
2023-01-13T18:15:05.765Z,70.46
2023-01-13T18:17:32.921Z,70.26
2023-01-13T18:20:18.255Z,69.93
2023-01-13T18:23:03.778Z,69.77
2023-01-13T18:25:49.304Z,70.80
2023-01-13T18:28:16.337Z,70.80
2023-01-13T18:30:43.361Z,70.60
2023-01-13T18:33:10.273Z,71.23
2023-01-13T18:35:40.293Z,70.35
2023-01-13T18:38:08.359Z,70.51
2023-01-13T18:40:35.541Z,70.90
2023-01-13T18:43:02.559Z,71.14
2023-01-13T18:45:31.825Z,70.76
2023-01-13T18:48:01.213Z,70.86
2023-01-13T18:50:28.516Z,71.10
2023-01-13T18:52:58.348Z,71.39
2023-01-13T18:55:25.818Z,71.40
2023-01-13T18:57:53.733Z,70.80
2023-01-13T19:00:22.293Z,70.97
2023-01-13T19:05:34.618Z,70.87
2023-01-13T19:08:02.138Z,70.98
2023-01-13T19:10:32.298Z,70.94
2023-01-13T19:12:59.600Z,71.11
2023-01-13T19:15:31.382Z,71.35
2023-01-13T19:17:58.562Z,71.28
2023-01-13T19:20:25.471Z,71.20
2023-01-13T19:22:54.650Z,70.86
2023-01-13T19:25:21.887Z,71.25
2023-01-13T19:27:48.901Z,71.34
2023-01-13T19:30:15.933Z,71.09
2023-01-13T19:32:43.009Z,71.34
2023-01-13T19:35:12.286Z,71.56
2023-01-13T19:37:40.447Z,71.83
2023-01-13T19:40:09.514Z,71.95
2023-01-13T19:42:57.640Z,71.78
2023-01-13T19:45:27.450Z,72.63
2023-01-13T19:47:58.457Z,73.81
2023-01-13T19:50:25.628Z,73.94
2023-01-13T19:52:52.576Z,73.76
2023-01-13T19:55:19.960Z,73.70
2023-01-13T19:57:47.100Z,73.24
2023-01-13T20:00:18.453Z,73.21
2023-01-13T20:02:49.667Z,73.20
2023-01-13T20:05:21.439Z,72.91
2023-01-13T20:10:33.313Z,73.71
2023-01-13T20:13:00.722Z,73.52
2023-01-13T20:15:28.280Z,73.70
2023-01-13T20:17:55.940Z,74.14
2023-01-13T20:20:22.957Z,74.96
2023-01-13T20:22:50.225Z,75.11
2023-01-13T20:25:17.776Z,75.63
2023-01-13T20:27:46.318Z,75.51
2023-01-13T20:30:14.573Z,75.57
2023-01-13T20:32:42.548Z,75.67
2023-01-13T20:35:10.407Z,75.13
2023-01-13T20:37:38.357Z,75.56
2023-01-13T20:40:06.558Z,75.62
2023-01-13T20:42:45.518Z,76.05
2023-01-13T20:45:19.917Z,75.87
2023-01-13T20:47:46.798Z,75.96
2023-01-13T20:50:16.449Z,75.36
2023-01-13T20:52:43.695Z,75.58
2023-01-13T20:55:11.570Z,76.28
2023-01-13T20:57:39.907Z,76.33
2023-01-13T21:00:07.614Z,76.48
2023-01-13T21:02:34.705Z,75.84
2023-01-13T21:05:01.881Z,75.31
2023-01-13T21:07:28.954Z,75.89
2023-01-13T21:09:57.569Z,75.34
2023-01-13T21:12:42.956Z,75.13
2023-01-13T21:15:17.667Z,75.87
2023-01-13T21:18:07.165Z,76.39
2023-01-13T21:20:35.859Z,77.08
2023-01-13T21:23:03.966Z,77.99
2023-01-13T21:25:35.190Z,77.72
2023-01-13T21:28:06.062Z,77.71
2023-01-13T21:30:33.978Z,77.16
2023-01-13T21:33:01.359Z,77.82
2023-01-13T21:35:28.420Z,77.93
2023-01-13T21:37:57.309Z,78.13
2023-01-13T21:40:24.249Z,78.49
2023-01-13T21:43:09.847Z,78.08
2023-01-13T21:45:57.946Z,77.76
2023-01-13T21:48:24.987Z,77.36
2023-01-13T21:50:51.836Z,77.69
2023-01-13T21:53:18.778Z,77.51
2023-01-13T21:55:50.672Z,77.44
2023-01-13T21:58:18.325Z,77.95
2023-01-13T22:00:45.416Z,78.00
2023-01-13T22:03:14.978Z,78.12
2023-01-13T22:05:42.080Z,77.74
2023-01-13T22:08:11.921Z,77.93
2023-01-13T22:10:57.783Z,78.00
2023-01-13T22:13:44.190Z,77.14
2023-01-13T22:16:11.204Z,77.07
2023-01-13T22:18:38.607Z,77.11
2023-01-13T22:21:05.708Z,76.93
2023-01-13T22:23:32.607Z,77.21
2023-01-13T22:26:04.294Z,77.22
2023-01-13T22:28:40.228Z,76.95
2023-01-13T22:31:15.916Z,76.48
2023-01-13T22:33:43.335Z,76.20
2023-01-13T22:36:10.791Z,76.85
2023-01-13T22:38:37.688Z,76.33
2023-01-13T22:41:07.534Z,75.94
2023-01-13T22:43:35.369Z,76.07
2023-01-13T22:46:06.927Z,75.90
2023-01-13T22:48:34.309Z,75.73
2023-01-13T22:51:08.989Z,75.90
2023-01-13T22:53:36.690Z,75.71
2023-01-13T22:56:04.117Z,75.91
2023-01-13T22:58:31.143Z,76.97
2023-01-13T23:01:16.875Z,77.08
2023-01-13T23:03:47.647Z,77.87
2023-01-13T23:06:15.810Z,77.36
2023-01-13T23:08:42.866Z,77.33
2023-01-13T23:11:12.485Z,77.51
2023-01-13T23:13:42.478Z,77.66
2023-01-13T23:16:12.393Z,78.11
2023-01-13T23:18:42.787Z,78.25
2023-01-13T23:21:11.967Z,78.57
2023-01-13T23:23:39.517Z,78.74
2023-01-13T23:26:07.368Z,78.13
2023-01-13T23:28:36.044Z,78.48
2023-01-13T23:31:12.182Z,78.89
2023-01-13T23:33:41.395Z,78.63
2023-01-13T23:36:09.510Z,78.77
2023-01-13T23:38:36.621Z,78.18
2023-01-13T23:41:08.318Z,78.28
2023-01-13T23:43:35.776Z,78.60
2023-01-13T23:46:08.701Z,78.58
2023-01-13T23:48:36.739Z,78.79
2023-01-13T23:51:06.572Z,77.75
2023-01-13T23:53:39.183Z,77.64
2023-01-13T23:56:09.010Z,77.38
2023-01-13T23:58:36.020Z,77.47
